sensor_id;sensor_type;location;lat;lon;timestamp;temperature;humidity
36818;DHT22;22761;51.542;16.450;2022-12-18T00:00:00;0.55;67.40
36818;DHT22;22761;51.542;16.450;2022-12-18T00:02:27;0.50;67.03
36818;DHT22;22761;51.542;16.450;2022-12-18T00:04:54;0.46;67.20
36818;DHT22;22761;51.542;16.450;2022-12-18T00:07:21;0.42;67.12
36818;DHT22;22761;51.542;16.450;2022-12-18T00:09:48;0.39;67.31
36818;DHT22;22761;51.542;16.450;2022-12-18T00:12:15;0.42;67.22
36818;DHT22;22761;51.542;16.450;2022-12-18T00:14:42;0.43;67.20
36818;DHT22;22761;51.542;16.450;2022-12-18T00:17:09;0.43;67.01
36818;DHT22;22761;51.542;16.450;2022-12-18T00:19:36;0.39;67.09
36818;DHT22;22761;51.542;16.450;2022-12-18T00:22:03;0.35;67.21
36818;DHT22;22761;51.542;16.450;2022-12-18T00:24:31;0.39;67.26
36818;DHT22;22761;51.542;16.450;2022-12-18T00:26:59;0.46;67.13
36818;DHT22;22761;51.542;16.450;2022-12-18T00:29:26;0.49;67.18
36818;DHT22;22761;51.542;16.450;2022-12-18T00:31:53;0.56;67.10
36818;DHT22;22761;51.542;16.450;2022-12-18T00:34:20;0.59;67.01
36818;DHT22;22761;51.542;16.450;2022-12-18T00:36:48;0.63;66.85
36818;DHT22;22761;51.542;16.450;2022-12-18T00:39:15;0.63;67.00
36818;DHT22;22761;51.542;16.450;2022-12-18T00:41:44;0.64;67.14
36818;DHT22;22761;51.542;16.450;2022-12-18T00:44:29;0.67;67.10
36818;DHT22;22761;51.542;16.450;2022-12-18T00:46:57;0.71;66.79
36818;DHT22;22761;51.542;16.450;2022-12-18T00:49:24;0.71;66.42
36818;DHT22;22761;51.542;16.450;2022-12-18T00:51:51;0.71;66.58
36818;DHT22;22761;51.542;16.450;2022-12-18T00:54:18;0.73;66.54
36818;DHT22;22761;51.542;16.450;2022-12-18T00:56:45;0.70;66.23
36818;DHT22;22761;51.542;16.450;2022-12-18T00:59:12;0.66;66.26
36818;DHT22;22761;51.542;16.450;2022-12-18T01:01:39;0.61;66.34
36818;DHT22;22761;51.542;16.450;2022-12-18T01:04:06;0.61;66.47
36818;DHT22;22761;51.542;16.450;2022-12-18T01:06:35;0.63;66.47
36818;DHT22;22761;51.542;16.450;2022-12-18T01:09:02;0.66;66.51
36818;DHT22;22761;51.542;16.450;2022-12-18T01:11:31;0.67;66.43
36818;DHT22;22761;51.542;16.450;2022-12-18T01:13:58;0.68;66.45
36818;DHT22;22761;51.542;16.450;2022-12-18T01:16:25;0.71;66.27
36818;DHT22;22761;51.542;16.450;2022-12-18T01:18:53;0.70;66.02
36818;DHT22;22761;51.542;16.450;2022-12-18T01:21:22;0.63;66.22
36818;DHT22;22761;51.542;16.450;2022-12-18T01:23:55;0.59;66.62
36818;DHT22;22761;51.542;16.450;2022-12-18T01:26:25;0.60;66.54
36818;DHT22;22761;51.542;16.450;2022-12-18T01:28:55;0.60;66.76
36818;DHT22;22761;51.542;16.450;2022-12-18T01:31:28;0.64;66.74
36818;DHT22;22761;51.542;16.450;2022-12-18T01:33:56;0.70;66.56
36818;DHT22;22761;51.542;16.450;2022-12-18T01:36:27;0.73;66.56
36818;DHT22;22761;51.542;16.450;2022-12-18T01:38:55;0.74;66.58
36818;DHT22;22761;51.542;16.450;2022-12-18T01:41:29;0.78;66.47
36818;DHT22;22761;51.542;16.450;2022-12-18T01:45:01;0.77;66.58
36818;DHT22;22761;51.542;16.450;2022-12-18T01:47:48;0.77;66.66
36818;DHT22;22761;51.542;16.450;2022-12-18T01:50:32;0.84;66.51
36818;DHT22;22761;51.542;16.450;2022-12-18T01:53:14;0.83;66.48
36818;DHT22;22761;51.542;16.450;2022-12-18T01:55:56;0.85;66.48
36818;DHT22;22761;51.542;16.450;2022-12-18T01:58:27;0.91;66.44
36818;DHT22;22761;51.542;16.450;2022-12-18T02:00:54;0.96;66.33
36818;DHT22;22761;51.542;16.450;2022-12-18T02:03:21;0.98;66.13
36818;DHT22;22761;51.542;16.450;2022-12-18T02:09:13;1.05;66.06
36818;DHT22;22761;51.542;16.450;2022-12-18T02:12:02;1.06;66.11
36818;DHT22;22761;51.542;16.450;2022-12-18T02:15:06;1.08;66.12
36818;DHT22;22761;51.542;16.450;2022-12-18T02:17:37;1.06;66.27
36818;DHT22;22761;51.542;16.450;2022-12-18T02:20:21;1.09;66.15
36818;DHT22;22761;51.542;16.450;2022-12-18T02:26:31;1.09;65.89
36818;DHT22;22761;51.542;16.450;2022-12-18T02:29:18;1.02;65.70
36818;DHT22;22761;51.542;16.450;2022-12-18T02:31:52;0.96;65.81
36818;DHT22;22761;51.542;16.450;2022-12-18T02:34:23;0.99;65.99
36818;DHT22;22761;51.542;16.450;2022-12-18T02:36:53;1.03;65.96
36818;DHT22;22761;51.542;16.450;2022-12-18T02:39:22;1.08;65.91
36818;DHT22;22761;51.542;16.450;2022-12-18T02:41:52;1.08;65.87
36818;DHT22;22761;51.542;16.450;2022-12-18T02:44:21;1.13;65.85
36818;DHT22;22761;51.542;16.450;2022-12-18T02:46:53;1.18;65.22
36818;DHT22;22761;51.542;16.450;2022-12-18T02:55:42;0.94;64.94
36818;DHT22;22761;51.542;16.450;2022-12-18T02:58:30;0.89;65.03
36818;DHT22;22761;51.542;16.450;2022-12-18T03:01:16;0.81;64.98
36818;DHT22;22761;51.542;16.450;2022-12-18T03:03:58;0.74;65.07
36818;DHT22;22761;51.542;16.450;2022-12-18T03:06:46;0.71;65.47
36818;DHT22;22761;51.542;16.450;2022-12-18T03:09:22;0.75;65.68
36818;DHT22;22761;51.542;16.450;2022-12-18T03:11:54;0.84;65.42
36818;DHT22;22761;51.542;16.450;2022-12-18T03:14:43;0.87;65.15
36818;DHT22;22761;51.542;16.450;2022-12-18T03:17:16;0.87;65.22
36818;DHT22;22761;51.542;16.450;2022-12-18T03:19:46;0.89;65.18
36818;DHT22;22761;51.542;16.450;2022-12-18T03:22:15;0.92;65.21
36818;DHT22;22761;51.542;16.450;2022-12-18T03:24:46;0.94;65.28
36818;DHT22;22761;51.542;16.450;2022-12-18T03:27:18;1.01;65.26
36818;DHT22;22761;51.542;16.450;2022-12-18T03:30:07;1.02;65.09
36818;DHT22;22761;51.542;16.450;2022-12-18T03:33:02;1.01;65.10
36818;DHT22;22761;51.542;16.450;2022-12-18T03:35:35;1.03;65.08
36818;DHT22;22761;51.542;16.450;2022-12-18T03:38:04;1.08;64.83
36818;DHT22;22761;51.542;16.450;2022-12-18T03:43:43;1.09;64.91
36818;DHT22;22761;51.542;16.450;2022-12-18T03:48:56;1.13;64.92
36818;DHT22;22761;51.542;16.450;2022-12-18T03:51:27;1.18;64.96
36818;DHT22;22761;51.542;16.450;2022-12-18T03:53:59;1.22;64.83
36818;DHT22;22761;51.542;16.450;2022-12-18T03:56:37;1.22;64.55
36818;DHT22;22761;51.542;16.450;2022-12-18T03:59:06;1.20;64.35
36818;DHT22;22761;51.542;16.450;2022-12-18T04:01:42;1.18;64.35
36818;DHT22;22761;51.542;16.450;2022-12-18T04:04:11;1.16;64.51
36818;DHT22;22761;51.542;16.450;2022-12-18T04:06:42;1.13;64.65
36818;DHT22;22761;51.542;16.450;2022-12-18T04:09:11;1.13;64.59
36818;DHT22;22761;51.542;16.450;2022-12-18T04:11:41;1.11;64.21
36818;DHT22;22761;51.542;16.450;2022-12-18T04:14:11;1.09;64.38
36818;DHT22;22761;51.542;16.450;2022-12-18T04:16:38;1.06;64.45
36818;DHT22;22761;51.542;16.450;2022-12-18T04:19:07;1.08;64.41
36818;DHT22;22761;51.542;16.450;2022-12-18T04:21:35;1.03;64.39
36818;DHT22;22761;51.542;16.450;2022-12-18T04:24:03;1.01;64.45
36818;DHT22;22761;51.542;16.450;2022-12-18T04:26:33;1.01;64.61
36818;DHT22;22761;51.542;16.450;2022-12-18T04:29:02;0.99;64.72
36818;DHT22;22761;51.542;16.450;2022-12-18T04:31:29;1.01;64.56
36818;DHT22;22761;51.542;16.450;2022-12-18T04:33:57;0.89;64.10
36818;DHT22;22761;51.542;16.450;2022-12-18T04:36:27;0.80;64.40
36818;DHT22;22761;51.542;16.450;2022-12-18T04:38:54;0.68;64.60
36818;DHT22;22761;51.542;16.450;2022-12-18T04:41:22;0.61;64.78
36818;DHT22;22761;51.542;16.450;2022-12-18T04:43:49;0.57;64.89
36818;DHT22;22761;51.542;16.450;2022-12-18T04:46:16;0.52;64.77
36818;DHT22;22761;51.542;16.450;2022-12-18T04:48:46;0.40;65.15
36818;DHT22;22761;51.542;16.450;2022-12-18T04:51:13;0.38;65.35
36818;DHT22;22761;51.542;16.450;2022-12-18T04:53:40;0.46;65.26
36818;DHT22;22761;51.542;16.450;2022-12-18T04:56:11;0.42;65.23
36818;DHT22;22761;51.542;16.450;2022-12-18T04:58:40;0.40;65.28
36818;DHT22;22761;51.542;16.450;2022-12-18T05:01:08;0.39;65.36
36818;DHT22;22761;51.542;16.450;2022-12-18T05:03:36;0.35;65.37
36818;DHT22;22761;51.542;16.450;2022-12-18T05:06:05;0.30;65.70
36818;DHT22;22761;51.542;16.450;2022-12-18T05:08:33;0.33;65.94
36818;DHT22;22761;51.542;16.450;2022-12-18T05:11:04;0.39;65.91
36818;DHT22;22761;51.542;16.450;2022-12-18T05:13:32;0.40;65.91
36818;DHT22;22761;51.542;16.450;2022-12-18T05:15:59;0.49;65.92
36818;DHT22;22761;51.542;16.450;2022-12-18T05:18:27;0.55;65.64
36818;DHT22;22761;51.542;16.450;2022-12-18T05:20:54;0.59;65.54
36818;DHT22;22761;51.542;16.450;2022-12-18T05:23:23;0.64;65.00
36818;DHT22;22761;51.542;16.450;2022-12-18T05:25:57;0.61;64.98
36818;DHT22;22761;51.542;16.450;2022-12-18T05:28:27;0.57;65.08
36818;DHT22;22761;51.542;16.450;2022-12-18T05:30:58;0.50;65.08
36818;DHT22;22761;51.542;16.450;2022-12-18T05:33:26;0.39;65.15
36818;DHT22;22761;51.542;16.450;2022-12-18T05:35:58;0.35;65.52
36818;DHT22;22761;51.542;16.450;2022-12-18T05:38:27;0.39;65.24
36818;DHT22;22761;51.542;16.450;2022-12-18T05:40:55;0.38;65.20
36818;DHT22;22761;51.542;16.450;2022-12-18T05:43:24;0.42;65.29
36818;DHT22;22761;51.542;16.450;2022-12-18T05:45:52;0.45;65.35
36818;DHT22;22761;51.542;16.450;2022-12-18T05:48:20;0.47;65.12
36818;DHT22;22761;51.542;16.450;2022-12-18T05:50:49;0.47;65.27
36818;DHT22;22761;51.542;16.450;2022-12-18T05:53:19;0.45;65.06
36818;DHT22;22761;51.542;16.450;2022-12-18T05:55:46;0.39;65.18
36818;DHT22;22761;51.542;16.450;2022-12-18T05:58:15;0.38;65.21
36818;DHT22;22761;51.542;16.450;2022-12-18T06:00:45;0.38;65.21
36818;DHT22;22761;51.542;16.450;2022-12-18T06:03:13;0.36;65.16
36818;DHT22;22761;51.542;16.450;2022-12-18T06:05:43;0.29;64.95
36818;DHT22;22761;51.542;16.450;2022-12-18T06:08:12;0.08;65.19
36818;DHT22;22761;51.542;16.450;2022-12-18T06:10:40;-0.09;65.81
36818;DHT22;22761;51.542;16.450;2022-12-18T06:13:08;-0.17;66.00
36818;DHT22;22761;51.542;16.450;2022-12-18T06:15:37;-0.24;66.21
36818;DHT22;22761;51.542;16.450;2022-12-18T06:18:04;-0.33;66.51
36818;DHT22;22761;51.542;16.450;2022-12-18T06:20:32;-0.34;66.75
36818;DHT22;22761;51.542;16.450;2022-12-18T06:22:59;-0.30;66.69
36818;DHT22;22761;51.542;16.450;2022-12-18T06:25:26;-0.26;66.63
36818;DHT22;22761;51.542;16.450;2022-12-18T06:27:53;-0.23;66.61
36818;DHT22;22761;51.542;16.450;2022-12-18T06:30:20;-0.22;66.53
36818;DHT22;22761;51.542;16.450;2022-12-18T06:32:49;-0.20;66.54
36818;DHT22;22761;51.542;16.450;2022-12-18T06:35:16;-0.16;66.66
36818;DHT22;22761;51.542;16.450;2022-12-18T06:37:43;-0.10;66.69
36818;DHT22;22761;51.542;16.450;2022-12-18T06:40:11;-0.05;66.75
36818;DHT22;22761;51.542;16.450;2022-12-18T06:42:38;0.01;66.74
36818;DHT22;22761;51.542;16.450;2022-12-18T06:45:06;0.06;66.44
36818;DHT22;22761;51.542;16.450;2022-12-18T06:47:33;0.11;66.28
36818;DHT22;22761;51.542;16.450;2022-12-18T06:50:00;0.11;66.29
36818;DHT22;22761;51.542;16.450;2022-12-18T06:52:27;0.15;65.93
36818;DHT22;22761;51.542;16.450;2022-12-18T06:54:54;0.14;65.87
36818;DHT22;22761;51.542;16.450;2022-12-18T06:57:21;0.11;65.67
36818;DHT22;22761;51.542;16.450;2022-12-18T06:59:48;0.08;65.78
36818;DHT22;22761;51.542;16.450;2022-12-18T07:02:15;0.04;65.63
36818;DHT22;22761;51.542;16.450;2022-12-18T07:04:42;-0.03;65.57
36818;DHT22;22761;51.542;16.450;2022-12-18T07:07:09;-0.09;65.71
36818;DHT22;22761;51.542;16.450;2022-12-18T07:09:37;-0.13;65.65
36818;DHT22;22761;51.542;16.450;2022-12-18T07:12:04;-0.23;65.87
36818;DHT22;22761;51.542;16.450;2022-12-18T07:14:31;-0.23;66.18
36818;DHT22;22761;51.542;16.450;2022-12-18T07:16:59;-0.26;66.23
36818;DHT22;22761;51.542;16.450;2022-12-18T07:19:26;-0.24;66.32
36818;DHT22;22761;51.542;16.450;2022-12-18T07:21:53;-0.22;66.15
36818;DHT22;22761;51.542;16.450;2022-12-18T07:24:20;-0.22;65.81
36818;DHT22;22761;51.542;16.450;2022-12-18T07:26:47;-0.26;65.80
36818;DHT22;22761;51.542;16.450;2022-12-18T07:29:14;-0.31;65.77
36818;DHT22;22761;51.542;16.450;2022-12-18T07:31:42;-0.31;65.97
36818;DHT22;22761;51.542;16.450;2022-12-18T07:34:13;-0.35;65.88
36818;DHT22;22761;51.542;16.450;2022-12-18T07:36:41;-0.37;65.85
36818;DHT22;22761;51.542;16.450;2022-12-18T07:39:10;-0.38;66.01
36818;DHT22;22761;51.542;16.450;2022-12-18T07:41:37;-0.40;66.05
36818;DHT22;22761;51.542;16.450;2022-12-18T07:44:05;-0.40;66.15
36818;DHT22;22761;51.542;16.450;2022-12-18T07:46:32;-0.40;66.32
36818;DHT22;22761;51.542;16.450;2022-12-18T07:48:59;-0.30;66.66
36818;DHT22;22761;51.542;16.450;2022-12-18T07:51:26;-0.24;66.71
36818;DHT22;22761;51.542;16.450;2022-12-18T07:53:53;-0.16;66.68
36818;DHT22;22761;51.542;16.450;2022-12-18T07:56:20;-0.10;66.21
36818;DHT22;22761;51.542;16.450;2022-12-18T07:58:49;-0.12;66.15
36818;DHT22;22761;51.542;16.450;2022-12-18T08:01:16;-0.12;66.08
36818;DHT22;22761;51.542;16.450;2022-12-18T08:03:43;-0.13;65.95
36818;DHT22;22761;51.542;16.450;2022-12-18T08:06:10;-0.16;66.20
36818;DHT22;22761;51.542;16.450;2022-12-18T08:08:38;-0.10;66.27
36818;DHT22;22761;51.542;16.450;2022-12-18T08:11:07;-0.09;65.92
36818;DHT22;22761;51.542;16.450;2022-12-18T08:13:34;-0.17;65.81
36818;DHT22;22761;51.542;16.450;2022-12-18T08:16:05;-0.23;66.16
36818;DHT22;22761;51.542;16.450;2022-12-18T08:18:35;-0.22;65.99
36818;DHT22;22761;51.542;16.450;2022-12-18T08:21:22;-0.26;65.78
36818;DHT22;22761;51.542;16.450;2022-12-18T08:23:51;-0.29;65.89
36818;DHT22;22761;51.542;16.450;2022-12-18T08:26:20;-0.30;66.02
36818;DHT22;22761;51.542;16.450;2022-12-18T08:28:49;-0.31;66.08
36818;DHT22;22761;51.542;16.450;2022-12-18T08:31:19;-0.31;66.18
36818;DHT22;22761;51.542;16.450;2022-12-18T08:33:54;-0.24;66.24
36818;DHT22;22761;51.542;16.450;2022-12-18T08:36:26;-0.17;66.11
36818;DHT22;22761;51.542;16.450;2022-12-18T08:38:56;-0.15;66.12
36818;DHT22;22761;51.542;16.450;2022-12-18T08:41:27;-0.09;65.84
36818;DHT22;22761;51.542;16.450;2022-12-18T08:43:56;-0.05;65.59
36818;DHT22;22761;51.542;16.450;2022-12-18T08:46:43;-0.03;65.54
36818;DHT22;22761;51.542;16.450;2022-12-18T08:49:12;-0.03;65.25
36818;DHT22;22761;51.542;16.450;2022-12-18T08:51:40;-0.02;65.08
36818;DHT22;22761;51.542;16.450;2022-12-18T08:54:08;-0.06;65.02
36818;DHT22;22761;51.542;16.450;2022-12-18T08:56:36;-0.05;65.16
36818;DHT22;22761;51.542;16.450;2022-12-18T08:59:03;0.01;65.26
36818;DHT22;22761;51.542;16.450;2022-12-18T09:01:30;0.02;65.10
36818;DHT22;22761;51.542;16.450;2022-12-18T09:03:57;0.02;65.07
36818;DHT22;22761;51.542;16.450;2022-12-18T09:06:24;0.05;64.88
36818;DHT22;22761;51.542;16.450;2022-12-18T09:08:59;0.06;64.25
36818;DHT22;22761;51.542;16.450;2022-12-18T09:11:31;-0.03;64.42
36818;DHT22;22761;51.542;16.450;2022-12-18T09:14:02;-0.09;64.88
36818;DHT22;22761;51.542;16.450;2022-12-18T09:16:32;-0.10;64.95
36818;DHT22;22761;51.542;16.450;2022-12-18T09:19:03;-0.09;64.93
36818;DHT22;22761;51.542;16.450;2022-12-18T09:21:34;-0.03;64.39
36818;DHT22;22761;51.542;16.450;2022-12-18T09:24:03;-0.09;64.37
36818;DHT22;22761;51.542;16.450;2022-12-18T09:26:32;-0.00;64.22
36818;DHT22;22761;51.542;16.450;2022-12-18T09:29:04;-0.05;64.46
36818;DHT22;22761;51.542;16.450;2022-12-18T09:31:41;-0.05;64.63
36818;DHT22;22761;51.542;16.450;2022-12-18T09:34:09;0.01;65.03
36818;DHT22;22761;51.542;16.450;2022-12-18T09:36:37;0.10;64.27
36818;DHT22;22761;51.542;16.450;2022-12-18T09:39:05;0.05;64.21
36818;DHT22;22761;51.542;16.450;2022-12-18T09:41:43;0.04;64.09
36818;DHT22;22761;51.542;16.450;2022-12-18T09:44:27;-0.02;64.35
36818;DHT22;22761;51.542;16.450;2022-12-18T09:47:21;0.01;63.88
36818;DHT22;22761;51.542;16.450;2022-12-18T09:50:04;-0.02;64.17
36818;DHT22;22761;51.542;16.450;2022-12-18T09:52:43;-0.02;64.16
36818;DHT22;22761;51.542;16.450;2022-12-18T09:57:53;0.01;64.25
36818;DHT22;22761;51.542;16.450;2022-12-18T10:00:25;0.05;64.24
36818;DHT22;22761;51.542;16.450;2022-12-18T10:03:08;0.15;63.78
36818;DHT22;22761;51.542;16.450;2022-12-18T10:08:35;0.10;64.19
36818;DHT22;22761;51.542;16.450;2022-12-18T10:11:34;0.14;63.97
36818;DHT22;22761;51.542;16.450;2022-12-18T10:16:59;0.17;63.65
36818;DHT22;22761;51.542;16.450;2022-12-18T10:19:48;0.18;63.70
36818;DHT22;22761;51.542;16.450;2022-12-18T10:27:58;0.38;63.23
36818;DHT22;22761;51.542;16.450;2022-12-18T10:30:27;0.45;63.06
36818;DHT22;22761;51.542;16.450;2022-12-18T10:33:02;0.40;63.49
36818;DHT22;22761;51.542;16.450;2022-12-18T10:35:29;0.42;63.46
36818;DHT22;22761;51.542;16.450;2022-12-18T10:40:58;0.57;63.04
36818;DHT22;22761;51.542;16.450;2022-12-18T10:43:37;0.61;62.55
36818;DHT22;22761;51.542;16.450;2022-12-18T10:46:19;0.67;62.23
36818;DHT22;22761;51.542;16.450;2022-12-18T10:48:52;0.66;61.88
36818;DHT22;22761;51.542;16.450;2022-12-18T10:51:35;0.68;61.63
36818;DHT22;22761;51.542;16.450;2022-12-18T10:54:45;0.66;61.45
36818;DHT22;22761;51.542;16.450;2022-12-18T10:56:43;0.53;61.89
36818;DHT22;22761;51.542;16.450;2022-12-18T10:59:14;0.55;61.32
36818;DHT22;22761;51.542;16.450;2022-12-18T11:01:58;0.52;61.32
36818;DHT22;22761;51.542;16.450;2022-12-18T11:04:29;0.52;61.89
36818;DHT22;22761;51.542;16.450;2022-12-18T11:07:08;0.60;62.11
36818;DHT22;22761;51.542;16.450;2022-12-18T11:09:36;0.68;61.35
36818;DHT22;22761;51.542;16.450;2022-12-18T11:12:15;0.73;61.14
36818;DHT22;22761;51.542;16.450;2022-12-18T11:14:49;0.80;60.90
36818;DHT22;22761;51.542;16.450;2022-12-18T11:20:00;0.84;61.02
36818;DHT22;22761;51.542;16.450;2022-12-18T11:22:32;0.92;60.79
36818;DHT22;22761;51.542;16.450;2022-12-18T11:27:52;1.03;60.90
36818;DHT22;22761;51.542;16.450;2022-12-18T11:30:32;1.11;60.75
36818;DHT22;22761;51.542;16.450;2022-12-18T11:33:20;1.15;60.57
36818;DHT22;22761;51.542;16.450;2022-12-18T11:35:59;1.13;60.42
36818;DHT22;22761;51.542;16.450;2022-12-18T11:38:41;1.19;60.73
36818;DHT22;22761;51.542;16.450;2022-12-18T11:41:49;1.33;60.01
36818;DHT22;22761;51.542;16.450;2022-12-18T11:44:57;1.25;59.92
36818;DHT22;22761;51.542;16.450;2022-12-18T11:47:46;1.25;60.10
36818;DHT22;22761;51.542;16.450;2022-12-18T11:50:21;1.29;59.84
36818;DHT22;22761;51.542;16.450;2022-12-18T11:52:49;1.36;59.52
36818;DHT22;22761;51.542;16.450;2022-12-18T11:55:28;1.43;59.34
36818;DHT22;22761;51.542;16.450;2022-12-18T12:01:28;1.51;58.14
36818;DHT22;22761;51.542;16.450;2022-12-18T12:04:20;1.43;58.53
36818;DHT22;22761;51.542;16.450;2022-12-18T12:13:09;1.57;58.49
36818;DHT22;22761;51.542;16.450;2022-12-18T12:15:57;1.70;58.44
36818;DHT22;22761;51.542;16.450;2022-12-18T12:29:59;2.24;56.81
36818;DHT22;22761;51.542;16.450;2022-12-18T12:35:47;2.44;56.96
36818;DHT22;22761;51.542;16.450;2022-12-18T12:38:22;2.55;55.90
36818;DHT22;22761;51.542;16.450;2022-12-18T12:40:57;2.64;55.19
36818;DHT22;22761;51.542;16.450;2022-12-18T12:43:38;2.69;55.11
36818;DHT22;22761;51.542;16.450;2022-12-18T12:46:09;2.65;55.48
36818;DHT22;22761;51.542;16.450;2022-12-18T12:48:47;2.67;55.06
36818;DHT22;22761;51.542;16.450;2022-12-18T12:51:33;2.67;54.94
36818;DHT22;22761;51.542;16.450;2022-12-18T12:54:04;2.65;54.86
36818;DHT22;22761;51.542;16.450;2022-12-18T12:56:45;2.64;55.54
36818;DHT22;22761;51.542;16.450;2022-12-18T13:08:06;2.58;55.18
36818;DHT22;22761;51.542;16.450;2022-12-18T13:10:40;2.54;55.55
36818;DHT22;22761;51.542;16.450;2022-12-18T13:13:14;2.44;55.72
36818;DHT22;22761;51.542;16.450;2022-12-18T13:16:10;2.33;55.68
36818;DHT22;22761;51.542;16.450;2022-12-18T13:18:22;2.21;56.41
36818;DHT22;22761;51.542;16.450;2022-12-18T13:34:20;1.98;56.86
36818;DHT22;22761;51.542;16.450;2022-12-18T13:36:49;2.05;56.35
36818;DHT22;22761;51.542;16.450;2022-12-18T13:44:39;2.16;56.12
36818;DHT22;22761;51.542;16.450;2022-12-18T13:49:57;2.09;56.61
36818;DHT22;22761;51.542;16.450;2022-12-18T13:52:28;2.03;56.74
36818;DHT22;22761;51.542;16.450;2022-12-18T13:54:58;2.03;56.94
36818;DHT22;22761;51.542;16.450;2022-12-18T13:57:34;1.99;56.53
36818;DHT22;22761;51.542;16.450;2022-12-18T14:00:27;1.84;56.66
36818;DHT22;22761;51.542;16.450;2022-12-18T14:02:58;1.67;56.73
36818;DHT22;22761;51.542;16.450;2022-12-18T14:05:34;1.47;57.56
36818;DHT22;22761;51.542;16.450;2022-12-18T14:08:14;1.33;58.10
36818;DHT22;22761;51.542;16.450;2022-12-18T14:10:45;1.22;58.18
36818;DHT22;22761;51.542;16.450;2022-12-18T14:13:28;1.11;58.60
36818;DHT22;22761;51.542;16.450;2022-12-18T14:15:56;0.96;58.75
36818;DHT22;22761;51.542;16.450;2022-12-18T14:18:55;0.89;58.99
36818;DHT22;22761;51.542;16.450;2022-12-18T14:21:28;0.78;59.18
36818;DHT22;22761;51.542;16.450;2022-12-18T14:24:19;0.61;59.29
36818;DHT22;22761;51.542;16.450;2022-12-18T14:26:50;0.46;59.60
36818;DHT22;22761;51.542;16.450;2022-12-18T14:29:25;0.35;59.87
36818;DHT22;22761;51.542;16.450;2022-12-18T14:32:14;0.25;60.21
36818;DHT22;22761;51.542;16.450;2022-12-18T14:34:53;0.11;60.42
36818;DHT22;22761;51.542;16.450;2022-12-18T14:37:27;-0.02;60.77
36818;DHT22;22761;51.542;16.450;2022-12-18T14:40:02;-0.13;61.02
36818;DHT22;22761;51.542;16.450;2022-12-18T14:42:31;-0.23;61.31
36818;DHT22;22761;51.542;16.450;2022-12-18T14:45:37;-0.33;61.63
36818;DHT22;22761;51.542;16.450;2022-12-18T14:48:39;-0.44;61.91
36818;DHT22;22761;51.542;16.450;2022-12-18T14:51:18;-0.54;62.86
36818;DHT22;22761;51.542;16.450;2022-12-18T14:53:58;-0.52;62.85
36818;DHT22;22761;51.542;16.450;2022-12-18T14:56:26;-0.60;62.60
36818;DHT22;22761;51.542;16.450;2022-12-18T14:59:04;-0.65;62.47
36818;DHT22;22761;51.542;16.450;2022-12-18T15:04:41;-0.85;62.94
36818;DHT22;22761;51.542;16.450;2022-12-18T15:07:20;-0.92;63.24
36818;DHT22;22761;51.542;16.450;2022-12-18T15:18:22;-1.07;63.96
36818;DHT22;22761;51.542;16.450;2022-12-18T15:20:55;-1.09;63.90
36818;DHT22;22761;51.542;16.450;2022-12-18T15:23:35;-1.12;63.93
36818;DHT22;22761;51.542;16.450;2022-12-18T15:26:08;-1.13;64.21
36818;DHT22;22761;51.542;16.450;2022-12-18T15:28:56;-1.19;64.32
36818;DHT22;22761;51.542;16.450;2022-12-18T15:31:33;-1.23;64.64
36818;DHT22;22761;51.542;16.450;2022-12-18T15:36:42;-1.34;64.86
36818;DHT22;22761;51.542;16.450;2022-12-18T15:39:14;-1.38;64.92
36818;DHT22;22761;51.542;16.450;2022-12-18T15:41:44;-1.37;65.14
36818;DHT22;22761;51.542;16.450;2022-12-18T15:44:23;-1.35;65.32
36818;DHT22;22761;51.542;16.450;2022-12-18T15:46:49;-1.37;65.48
36818;DHT22;22761;51.542;16.450;2022-12-18T15:49:18;-1.38;65.48
36818;DHT22;22761;51.542;16.450;2022-12-18T15:51:58;-1.42;65.59
36818;DHT22;22761;51.542;16.450;2022-12-18T15:54:24;-1.42;65.53
36818;DHT22;22761;51.542;16.450;2022-12-18T15:57:12;-1.50;65.60
36818;DHT22;22761;51.542;16.450;2022-12-18T15:59:55;-1.51;65.67
36818;DHT22;22761;51.542;16.450;2022-12-18T16:02:27;-1.51;65.71
36818;DHT22;22761;51.542;16.450;2022-12-18T16:04:56;-1.55;65.75
36818;DHT22;22761;51.542;16.450;2022-12-18T16:07:26;-1.54;65.89
36818;DHT22;22761;51.542;16.450;2022-12-18T16:09:59;-1.59;65.71
36818;DHT22;22761;51.542;16.450;2022-12-18T16:12:29;-1.62;65.82
36818;DHT22;22761;51.542;16.450;2022-12-18T16:14:57;-1.61;65.98
36818;DHT22;22761;51.542;16.450;2022-12-18T16:17:28;-1.65;65.82
36818;DHT22;22761;51.542;16.450;2022-12-18T16:19:58;-1.69;66.26
36818;DHT22;22761;51.542;16.450;2022-12-18T16:22:36;-1.70;66.25
36818;DHT22;22761;51.542;16.450;2022-12-18T16:25:24;-1.78;66.39
36818;DHT22;22761;51.542;16.450;2022-12-18T16:27:54;-1.78;66.58
36818;DHT22;22761;51.542;16.450;2022-12-18T16:30:29;-1.80;66.64
36818;DHT22;22761;51.542;16.450;2022-12-18T16:32:59;-1.90;66.79
36818;DHT22;22761;51.542;16.450;2022-12-18T16:35:30;-1.91;67.01
36818;DHT22;22761;51.542;16.450;2022-12-18T16:38:01;-1.96;67.21
36818;DHT22;22761;51.542;16.450;2022-12-18T16:40:32;-1.96;67.17
36818;DHT22;22761;51.542;16.450;2022-12-18T16:43:01;-2.03;67.11
36818;DHT22;22761;51.542;16.450;2022-12-18T16:45:30;-2.03;67.14
36818;DHT22;22761;51.542;16.450;2022-12-18T16:48:03;-2.01;67.17
36818;DHT22;22761;51.542;16.450;2022-12-18T16:50:35;-1.98;67.08
36818;DHT22;22761;51.542;16.450;2022-12-18T16:53:06;-1.98;66.88
36818;DHT22;22761;51.542;16.450;2022-12-18T16:55:37;-1.96;66.89
36818;DHT22;22761;51.542;16.450;2022-12-18T16:58:08;-1.96;66.78
36818;DHT22;22761;51.542;16.450;2022-12-18T17:00:38;-1.91;66.78
36818;DHT22;22761;51.542;16.450;2022-12-18T17:03:07;-1.89;66.60
36818;DHT22;22761;51.542;16.450;2022-12-18T17:05:38;-1.89;66.36
36818;DHT22;22761;51.542;16.450;2022-12-18T17:08:09;-1.86;66.10
36818;DHT22;22761;51.542;16.450;2022-12-18T17:10:42;-1.87;65.92
36818;DHT22;22761;51.542;16.450;2022-12-18T17:13:12;-1.84;65.80
36818;DHT22;22761;51.542;16.450;2022-12-18T17:15:42;-1.80;65.76
36818;DHT22;22761;51.542;16.450;2022-12-18T17:18:14;-1.79;65.72
36818;DHT22;22761;51.542;16.450;2022-12-18T17:20:43;-1.80;65.79
36818;DHT22;22761;51.542;16.450;2022-12-18T17:23:11;-1.82;66.13
36818;DHT22;22761;51.542;16.450;2022-12-18T17:25:42;-1.80;66.30
36818;DHT22;22761;51.542;16.450;2022-12-18T17:28:11;-1.82;66.55
36818;DHT22;22761;51.542;16.450;2022-12-18T17:30:41;-1.80;66.60
36818;DHT22;22761;51.542;16.450;2022-12-18T17:33:11;-1.80;66.67
36818;DHT22;22761;51.542;16.450;2022-12-18T17:35:42;-1.83;66.70
36818;DHT22;22761;51.542;16.450;2022-12-18T17:38:11;-1.86;66.65
36818;DHT22;22761;51.542;16.450;2022-12-18T17:40:41;-1.84;66.73
36818;DHT22;22761;51.542;16.450;2022-12-18T17:43:11;-1.87;66.65
36818;DHT22;22761;51.542;16.450;2022-12-18T17:45:41;-1.84;66.55
36818;DHT22;22761;51.542;16.450;2022-12-18T17:48:10;-1.84;66.46